createdAt,value
2023-04-25T00:00:56.523Z,23.46
2023-04-25T00:01:56.531Z,23.45
2023-04-25T00:02:56.672Z,23.44
2023-04-25T00:03:57.015Z,23.45
2023-04-25T00:04:56.767Z,23.44
2023-04-25T00:05:56.561Z,23.44
2023-04-25T00:06:56.510Z,23.44
2023-04-25T00:07:56.531Z,23.44
2023-04-25T00:08:56.501Z,23.43
2023-04-25T00:09:56.512Z,23.44
2023-04-25T00:10:56.499Z,23.43
2023-04-25T00:11:56.514Z,23.43
2023-04-25T00:12:56.505Z,23.43
2023-04-25T00:13:56.502Z,23.43
2023-04-25T00:14:56.525Z,23.42
2023-04-25T00:15:56.591Z,23.42
2023-04-25T00:16:56.539Z,23.42
2023-04-25T00:17:56.622Z,23.41
2023-04-25T00:18:56.568Z,23.41
2023-04-25T00:19:56.571Z,23.41
2023-04-25T00:20:56.590Z,23.41
2023-04-25T00:21:56.608Z,23.42
2023-04-25T00:22:56.608Z,23.42
2023-04-25T00:23:56.614Z,23.42
2023-04-25T00:24:56.573Z,23.42
2023-04-25T00:25:56.577Z,23.43
2023-04-25T00:26:56.589Z,23.42
2023-04-25T00:27:56.606Z,23.42
2023-04-25T00:28:56.582Z,23.43
2023-04-25T00:29:56.610Z,23.43
2023-04-25T00:30:56.615Z,23.43
2023-04-25T00:31:56.716Z,23.43
2023-04-25T00:32:56.690Z,23.43
2023-04-25T00:33:56.652Z,23.43
2023-04-25T00:34:56.664Z,23.43
2023-04-25T00:35:56.644Z,23.44
2023-04-25T00:36:56.701Z,23.44
2023-04-25T00:37:56.697Z,23.43
2023-04-25T00:38:56.705Z,23.43
2023-04-25T00:39:56.744Z,23.42
2023-04-25T00:40:56.726Z,23.42
2023-04-25T00:41:56.747Z,23.42
2023-04-25T00:42:56.814Z,23.42
2023-04-25T00:43:56.820Z,23.40
2023-04-25T00:44:56.787Z,23.39
2023-04-25T00:45:56.786Z,23.40
2023-04-25T00:46:56.828Z,23.39
2023-04-25T00:47:56.856Z,23.40
2023-04-25T00:48:56.809Z,23.39
2023-04-25T00:49:56.814Z,23.40
2023-04-25T00:50:56.818Z,23.39
2023-04-25T00:51:56.815Z,23.40
2023-04-25T00:52:56.846Z,23.39
2023-04-25T00:53:56.853Z,23.38
2023-04-25T00:54:56.871Z,23.38
2023-04-25T00:55:56.903Z,23.38
2023-04-25T00:56:56.895Z,23.38
2023-04-25T00:57:56.898Z,23.37
2023-04-25T00:58:56.942Z,23.38
2023-04-25T00:59:56.954Z,23.39
2023-04-25T01:00:57.015Z,23.38
2023-04-25T01:01:57.019Z,23.38
2023-04-25T01:02:57.098Z,23.38
2023-04-25T01:03:57.154Z,23.38
2023-04-25T01:04:57.032Z,23.37
2023-04-25T01:05:57.005Z,23.39
2023-04-25T01:06:57.025Z,23.37
2023-04-25T01:07:57.038Z,23.38
2023-04-25T01:08:57.047Z,23.38
2023-04-25T01:09:57.086Z,23.37
2023-04-25T01:10:57.082Z,23.38
2023-04-25T01:11:57.134Z,23.38
2023-04-25T01:12:57.149Z,23.37
2023-04-25T01:13:57.171Z,23.38
2023-04-25T01:14:57.148Z,23.38
2023-04-25T01:15:57.182Z,23.38
2023-04-25T01:16:57.170Z,23.38
2023-04-25T01:17:57.288Z,23.38
2023-04-25T01:18:57.176Z,23.37
2023-04-25T01:19:57.224Z,23.37
2023-04-25T01:20:57.204Z,23.37
2023-04-25T01:21:57.200Z,23.37
2023-04-25T01:22:57.239Z,23.37
2023-04-25T01:23:57.266Z,23.37
2023-04-25T01:24:57.270Z,23.38
2023-04-25T01:25:57.251Z,23.37
2023-04-25T01:26:57.302Z,23.37
2023-04-25T01:27:57.336Z,23.38
2023-04-25T01:28:57.321Z,23.37
2023-04-25T01:29:57.353Z,23.37
2023-04-25T01:30:57.346Z,23.38
2023-04-25T01:31:57.359Z,23.37
2023-04-25T01:32:57.525Z,23.37
2023-04-25T01:33:57.405Z,23.37
2023-04-25T01:34:57.400Z,23.36
2023-04-25T01:35:57.426Z,23.36
2023-04-25T01:36:57.385Z,23.36
2023-04-25T01:37:57.461Z,23.37
2023-04-25T01:38:57.452Z,23.36
2023-04-25T01:39:57.482Z,23.36
2023-04-25T01:40:57.494Z,23.36
2023-04-25T01:41:57.731Z,23.36
2023-04-25T01:42:57.505Z,23.35
2023-04-25T01:43:57.517Z,23.35
2023-04-25T01:44:57.544Z,23.35
2023-04-25T01:45:57.583Z,23.35
2023-04-25T01:46:57.599Z,23.35
2023-04-25T01:47:57.624Z,23.35
2023-04-25T01:48:57.606Z,23.35
2023-04-25T01:49:57.632Z,23.36
2023-04-25T01:50:57.648Z,23.35
2023-04-25T01:51:57.654Z,23.36
2023-04-25T01:52:57.669Z,23.36
2023-04-25T01:53:58.835Z,23.36
2023-04-25T01:54:57.704Z,23.35
2023-04-25T01:55:57.670Z,23.36
2023-04-25T01:56:57.673Z,23.35
2023-04-25T01:57:57.663Z,23.36
2023-04-25T01:58:57.699Z,23.36
2023-04-25T01:59:57.706Z,23.37
2023-04-25T02:00:57.733Z,23.36
2023-04-25T02:01:57.779Z,23.36
2023-04-25T02:02:57.845Z,23.36
2023-04-25T02:03:58.069Z,23.37
2023-04-25T02:04:57.730Z,23.36
2023-04-25T02:05:57.729Z,23.35
2023-04-25T02:06:57.724Z,23.36
2023-04-25T02:07:57.770Z,23.36
2023-04-25T02:08:57.728Z,23.35
2023-04-25T02:09:57.781Z,23.35
2023-04-25T02:10:57.729Z,23.34
2023-04-25T02:11:57.761Z,23.34
2023-04-25T02:12:57.758Z,23.34
2023-04-25T02:13:57.752Z,23.34
2023-04-25T02:14:57.737Z,23.34
2023-04-25T02:15:57.825Z,23.34
2023-04-25T02:16:57.876Z,23.34
2023-04-25T02:17:57.795Z,23.35
2023-04-25T02:18:57.802Z,23.33
2023-04-25T02:19:57.763Z,23.33
2023-04-25T02:20:57.794Z,23.30
2023-04-25T02:21:57.807Z,23.29
2023-04-25T02:22:57.782Z,23.29
2023-04-25T02:23:57.800Z,23.28
2023-04-25T02:24:57.800Z,23.27
2023-04-25T02:25:57.840Z,23.27
2023-04-25T02:26:57.849Z,23.28
2023-04-25T02:27:57.830Z,23.27
2023-04-25T02:28:57.827Z,23.28
2023-04-25T02:29:57.841Z,23.26
2023-04-25T02:30:57.854Z,23.28
2023-04-25T02:31:57.922Z,23.28
2023-04-25T02:32:57.924Z,23.28
2023-04-25T02:33:57.893Z,23.27
2023-04-25T02:34:57.905Z,23.25
2023-04-25T02:35:57.928Z,23.23
2023-04-25T02:36:57.927Z,23.19
2023-04-25T02:37:57.923Z,23.16
2023-04-25T02:38:57.900Z,23.14
2023-04-25T02:39:57.964Z,23.15
2023-04-25T02:40:57.957Z,23.14
2023-04-25T02:41:57.951Z,23.14
2023-04-25T02:42:57.963Z,23.14
2023-04-25T02:43:57.959Z,23.15
2023-04-25T02:44:57.939Z,23.13
2023-04-25T02:45:57.956Z,23.12
2023-04-25T02:46:58.008Z,23.09
2023-04-25T02:47:58.017Z,23.07
2023-04-25T02:48:57.971Z,23.05
2023-04-25T02:49:57.970Z,23.03
2023-04-25T02:50:58.003Z,22.99
2023-04-25T02:51:57.993Z,22.98
2023-04-25T02:52:57.980Z,22.97
2023-04-25T02:53:57.999Z,22.97
2023-04-25T02:54:58.004Z,22.96
2023-04-25T02:55:58.034Z,22.95
2023-04-25T02:56:58.028Z,22.94
2023-04-25T02:57:58.055Z,22.93
2023-04-25T02:58:58.050Z,22.88
2023-04-25T02:59:58.053Z,22.85
2023-04-25T03:00:58.130Z,22.80
2023-04-25T03:01:58.087Z,22.75
2023-04-25T03:02:58.166Z,22.73
2023-04-25T03:03:58.120Z,22.73
2023-04-25T03:04:58.125Z,22.71
2023-04-25T03:05:58.107Z,22.71
2023-04-25T03:06:58.133Z,22.70
2023-04-25T03:07:59.071Z,22.66
2023-04-25T03:08:58.138Z,22.64
2023-04-25T03:09:58.179Z,22.65
2023-04-25T03:10:58.173Z,22.63
2023-04-25T03:11:58.173Z,22.59
2023-04-25T03:12:58.214Z,22.55
2023-04-25T03:13:58.170Z,22.54
2023-04-25T03:14:58.221Z,22.51
2023-04-25T03:15:58.227Z,22.49
2023-04-25T03:16:58.259Z,22.48
2023-04-25T03:17:58.251Z,22.47
2023-04-25T03:18:58.255Z,22.49
2023-04-25T03:19:58.247Z,22.49
2023-04-25T03:20:58.264Z,22.50
2023-04-25T03:21:58.280Z,22.52
2023-04-25T03:22:58.336Z,22.54
2023-04-25T03:23:58.356Z,22.56
2023-04-25T03:24:58.426Z,22.58
2023-04-25T03:25:58.469Z,22.62
2023-04-25T03:26:58.531Z,22.64
2023-04-25T03:27:58.596Z,22.66
2023-04-25T03:28:58.641Z,22.68
2023-04-25T03:29:58.690Z,22.72
2023-04-25T03:30:58.786Z,22.76
2023-04-25T03:31:58.864Z,22.80
2023-04-25T03:32:58.935Z,22.81
2023-04-25T03:33:58.958Z,22.83
2023-04-25T03:34:59.015Z,22.84
2023-04-25T03:35:59.019Z,22.84
2023-04-25T03:36:59.095Z,22.85
2023-04-25T03:37:59.133Z,22.86
2023-04-25T03:38:59.177Z,22.88
2023-04-25T03:39:59.250Z,22.90
2023-04-25T03:40:59.262Z,22.91
2023-04-25T03:41:59.303Z,22.92
2023-04-25T03:42:59.375Z,22.92
2023-04-25T03:43:59.418Z,22.93
2023-04-25T03:44:59.452Z,22.94
2023-04-25T03:45:59.558Z,22.95
2023-04-25T03:46:59.547Z,22.99
2023-04-25T03:47:59.581Z,23.01
2023-04-25T03:48:59.616Z,23.05
2023-04-25T03:49:59.651Z,23.08
2023-04-25T03:50:59.707Z,23.12
2023-04-25T03:51:59.748Z,23.15
2023-04-25T03:52:59.749Z,23.17
2023-04-25T03:53:59.795Z,23.19
2023-04-25T03:54:59.776Z,23.20
2023-04-25T03:55:59.833Z,23.20
2023-04-25T03:56:59.856Z,23.22
2023-04-25T03:57:59.878Z,23.23
2023-04-25T03:58:59.879Z,23.25
2023-04-25T03:59:59.969Z,23.26
2023-04-25T04:00:59.890Z,23.29
2023-04-25T04:01:59.960Z,23.31
2023-04-25T04:03:00.049Z,23.32
2023-04-25T04:04:00.237Z,23.32
2023-04-25T04:05:00.120Z,23.31
2023-04-25T04:05:59.972Z,23.32
2023-04-25T04:06:59.965Z,23.33
2023-04-25T04:07:59.983Z,23.34
2023-04-25T04:08:59.994Z,23.36
2023-04-25T04:09:59.989Z,23.38
2023-04-25T04:11:00.064Z,23.39
2023-04-25T04:12:00.121Z,23.41
2023-04-25T04:13:00.056Z,23.42
2023-04-25T04:14:00.078Z,23.44
2023-04-25T04:15:00.098Z,23.46
2023-04-25T04:16:00.213Z,23.46
2023-04-25T04:17:00.098Z,23.48
2023-04-25T04:18:00.188Z,23.47
2023-04-25T04:19:00.173Z,23.49
2023-04-25T04:20:00.238Z,23.50
2023-04-25T04:21:00.250Z,23.50
2023-04-25T04:22:00.286Z,23.51
2023-04-25T04:23:00.353Z,23.52
2023-04-25T04:24:00.387Z,23.52
2023-04-25T04:25:00.506Z,23.52
2023-04-25T04:26:00.487Z,23.52
2023-04-25T04:27:00.518Z,23.50
2023-04-25T04:28:00.530Z,23.49
2023-04-25T04:29:00.575Z,23.48
2023-04-25T04:30:00.593Z,23.46
2023-04-25T04:31:00.677Z,23.45
2023-04-25T04:32:00.680Z,23.45
2023-04-25T04:33:00.740Z,23.45
2023-04-25T04:34:00.767Z,23.46
2023-04-25T04:35:00.804Z,23.47
2023-04-25T04:36:00.796Z,23.49
2023-04-25T04:37:00.804Z,23.50
2023-04-25T04:38:00.883Z,23.51
2023-04-25T04:39:00.914Z,23.52
2023-04-25T04:40:00.931Z,23.53
2023-04-25T04:41:00.955Z,23.54
2023-04-25T04:42:00.991Z,23.56
2023-04-25T04:43:01.032Z,23.57
2023-04-25T04:44:01.065Z,23.58
2023-04-25T04:45:01.122Z,23.60
2023-04-25T04:46:01.138Z,23.61
2023-04-25T04:47:01.305Z,23.62
2023-04-25T04:48:01.267Z,23.63
2023-04-25T04:49:01.272Z,23.64
2023-04-25T04:50:01.326Z,23.65
2023-04-25T04:51:01.352Z,23.66
2023-04-25T04:52:01.445Z,23.67
2023-04-25T04:53:01.477Z,23.68
2023-04-25T04:54:01.561Z,23.70
2023-04-25T04:55:01.612Z,23.71
2023-04-25T04:56:01.671Z,23.71
2023-04-25T04:57:01.716Z,23.73
2023-04-25T04:58:01.765Z,23.73
2023-04-25T04:59:01.825Z,23.73
2023-04-25T05:00:01.878Z,23.72
2023-04-25T05:01:09.007Z,23.71
2023-04-25T05:02:01.933Z,23.68
2023-04-25T05:03:02.053Z,23.67
2023-04-25T05:04:02.404Z,23.66
2023-04-25T05:05:01.926Z,23.64
2023-04-25T05:06:01.940Z,23.62
2023-04-25T05:07:01.949Z,23.62
2023-04-25T05:08:01.930Z,23.62
2023-04-25T05:09:02.006Z,23.62
2023-04-25T05:10:01.936Z,23.62
2023-04-25T05:11:01.927Z,23.62
2023-04-25T05:12:01.935Z,23.63
2023-04-25T05:13:01.917Z,23.63
2023-04-25T05:14:01.964Z,23.64
2023-04-25T05:15:01.961Z,23.65
2023-04-25T05:16:01.954Z,23.65
2023-04-25T05:17:01.999Z,23.65
2023-04-25T05:18:01.940Z,23.67
2023-04-25T05:19:01.944Z,23.67
2023-04-25T05:20:01.937Z,23.69
2023-04-25T05:21:01.942Z,23.70
2023-04-25T05:22:01.918Z,23.71
2023-04-25T05:23:01.944Z,23.71
2023-04-25T05:24:01.916Z,23.72
2023-04-25T05:25:01.929Z,23.72
2023-04-25T05:26:01.903Z,23.73
2023-04-25T05:27:01.925Z,23.74
2023-04-25T05:28:01.955Z,23.72
2023-04-25T05:29:02.012Z,23.72
2023-04-25T05:30:02.164Z,23.72
2023-04-25T05:31:02.092Z,23.71
2023-04-25T05:32:02.219Z,23.70
2023-04-25T05:33:02.234Z,23.69
2023-04-25T05:34:02.280Z,23.68
2023-04-25T05:35:02.736Z,23.66
2023-04-25T05:36:02.373Z,23.64
2023-04-25T05:37:02.425Z,23.58
2023-04-25T05:38:02.527Z,23.53
2023-04-25T05:39:02.535Z,23.51
2023-04-25T05:40:02.656Z,23.50
2023-04-25T05:41:02.591Z,23.49
2023-04-25T05:42:02.593Z,23.47
2023-04-25T05:43:02.635Z,23.44
2023-04-25T05:44:02.712Z,23.41
2023-04-25T05:45:03.128Z,23.39
2023-04-25T05:46:09.792Z,23.36
2023-04-25T05:47:02.714Z,23.37
2023-04-25T05:48:02.760Z,23.40
2023-04-25T05:49:02.902Z,23.42
2023-04-25T05:50:03.160Z,23.46
2023-04-25T05:51:02.745Z,23.50
2023-04-25T05:52:02.715Z,23.55
2023-04-25T05:53:02.735Z,23.59
2023-04-25T05:54:02.730Z,23.62
2023-04-25T05:55:02.725Z,23.66
2023-04-25T05:56:02.763Z,23.69
2023-04-25T05:57:02.754Z,23.72
2023-04-25T05:58:02.722Z,23.74
2023-04-25T05:59:02.757Z,23.79
2023-04-25T06:00:02.743Z,23.83
2023-04-25T06:01:02.748Z,23.87
2023-04-25T06:02:02.775Z,23.93
2023-04-25T06:03:02.872Z,23.99
2023-04-25T06:04:03.058Z,24.06
2023-04-25T06:05:02.906Z,24.12
2023-04-25T06:06:02.780Z,24.18
2023-04-25T06:07:02.685Z,24.22
2023-04-25T06:08:02.657Z,24.26
2023-04-25T06:09:02.667Z,24.31
2023-04-25T06:10:02.635Z,24.35
2023-04-25T06:11:02.642Z,24.38
2023-04-25T06:12:02.612Z,24.42
2023-04-25T06:13:02.617Z,24.43
2023-04-25T06:14:02.560Z,24.46
2023-04-25T06:15:03.533Z,24.48
2023-04-25T06:16:02.610Z,24.50
2023-04-25T06:17:02.537Z,24.52
2023-04-25T06:18:02.643Z,24.52
2023-04-25T06:19:02.578Z,24.55
2023-04-25T06:20:03.296Z,24.56
2023-04-25T06:21:02.521Z,24.57
2023-04-25T06:22:02.450Z,24.59
2023-04-25T06:23:02.488Z,24.62
2023-04-25T06:24:02.472Z,24.64
2023-04-25T06:25:02.466Z,24.64
2023-04-25T06:26:02.454Z,24.65
2023-04-25T06:27:02.443Z,24.66
2023-04-25T06:28:02.449Z,24.66
2023-04-25T06:29:02.423Z,24.65
2023-04-25T06:30:02.420Z,24.66
2023-04-25T06:31:02.506Z,24.67
2023-04-25T06:32:02.449Z,24.68
2023-04-25T06:33:02.493Z,24.71
2023-04-25T06:34:02.493Z,24.73
2023-04-25T06:35:02.472Z,24.76
2023-04-25T06:36:03.188Z,24.73
2023-04-25T06:37:02.532Z,24.62
2023-04-25T06:38:02.593Z,24.58
2023-04-25T06:39:02.601Z,24.54
2023-04-25T06:40:02.634Z,24.49
2023-04-25T06:41:02.668Z,24.44
2023-04-25T06:42:02.617Z,24.41
2023-04-25T06:43:02.655Z,24.36
2023-04-25T06:44:02.628Z,24.33
2023-04-25T06:45:02.638Z,24.32
2023-04-25T06:46:03.184Z,24.31
2023-04-25T06:47:02.758Z,24.33
2023-04-25T06:48:02.777Z,24.33
2023-04-25T06:49:02.755Z,24.31
2023-04-25T06:50:03.116Z,24.32
2023-04-25T06:51:02.936Z,24.33
2023-04-25T06:52:03.822Z,24.33
2023-04-25T06:53:02.836Z,24.33
2023-04-25T06:54:02.800Z,24.32
2023-04-25T06:55:02.800Z,24.33
2023-04-25T06:56:02.784Z,24.36
2023-04-25T06:57:02.787Z,24.40
2023-04-25T06:58:02.767Z,24.43
2023-04-25T06:59:02.743Z,24.48
2023-04-25T07:00:02.781Z,24.51
2023-04-25T07:01:02.765Z,24.51
2023-04-25T07:02:02.735Z,24.50
2023-04-25T07:03:02.813Z,24.51
2023-04-25T07:04:02.992Z,24.51
2023-04-25T07:05:02.684Z,24.51
2023-04-25T07:06:02.674Z,24.52
2023-04-25T07:07:02.633Z,24.52
2023-04-25T07:08:02.632Z,24.51
2023-04-25T07:09:02.707Z,24.51
2023-04-25T07:10:02.676Z,24.52
2023-04-25T07:11:02.681Z,24.52
2023-04-25T07:12:02.798Z,24.53
2023-04-25T07:13:02.699Z,24.53
2023-04-25T07:14:02.807Z,24.53
2023-04-25T07:15:02.691Z,24.51
2023-04-25T07:16:03.299Z,24.50
2023-04-25T07:17:03.014Z,24.50
2023-04-25T07:18:02.787Z,24.50
2023-04-25T07:19:02.787Z,24.47
2023-04-25T07:20:02.787Z,24.42
2023-04-25T07:21:03.220Z,24.36
2023-04-25T07:22:02.822Z,24.33
2023-04-25T07:23:02.832Z,24.30
2023-04-25T07:24:02.869Z,24.28
2023-04-25T07:25:02.921Z,24.25
2023-04-25T07:26:02.953Z,24.24
2023-04-25T07:27:02.966Z,24.22
2023-04-25T07:28:03.008Z,24.21
2023-04-25T07:29:03.053Z,24.19
2023-04-25T07:30:03.085Z,24.17
2023-04-25T07:31:03.191Z,24.18
2023-04-25T07:32:03.230Z,24.19
2023-04-25T07:33:03.320Z,24.22
2023-04-25T07:34:03.255Z,24.25
2023-04-25T07:35:03.296Z,24.28
2023-04-25T07:36:03.332Z,24.30
2023-04-25T07:37:03.338Z,24.33
2023-04-25T07:38:03.353Z,24.35
2023-04-25T07:39:03.385Z,24.37
2023-04-25T07:40:03.452Z,24.39
2023-04-25T07:41:03.761Z,24.43
2023-04-25T07:42:03.447Z,24.44
2023-04-25T07:43:03.483Z,24.46
2023-04-25T07:44:03.469Z,24.48
2023-04-25T07:45:03.485Z,24.50
2023-04-25T07:46:03.705Z,24.51
2023-04-25T07:47:04.541Z,24.51
2023-04-25T07:48:03.512Z,24.53
2023-04-25T07:49:03.492Z,24.52
2023-04-25T07:50:03.492Z,24.51
2023-04-25T07:51:03.509Z,24.52
2023-04-25T07:52:03.488Z,24.53
2023-04-25T07:53:03.483Z,24.53
2023-04-25T07:54:03.550Z,24.54
2023-04-25T07:55:03.527Z,24.54
2023-04-25T07:56:03.548Z,24.54
2023-04-25T07:57:03.513Z,24.53
2023-04-25T07:58:03.590Z,24.52
2023-04-25T07:59:03.570Z,24.52
2023-04-25T08:00:03.574Z,24.52
2023-04-25T08:01:03.611Z,24.51
2023-04-25T08:02:03.608Z,24.50
2023-04-25T08:03:03.725Z,24.48
2023-04-25T08:04:03.813Z,24.47
2023-04-25T08:05:03.804Z,24.46
2023-04-25T08:06:06.884Z,24.46
2023-04-25T08:07:03.649Z,24.45
2023-04-25T08:08:03.661Z,24.46
2023-04-25T08:09:03.617Z,24.46
2023-04-25T08:10:03.652Z,24.48
2023-04-25T08:11:03.608Z,24.50
2023-04-25T08:12:03.613Z,24.51
2023-04-25T08:13:03.616Z,24.53
2023-04-25T08:14:03.615Z,24.55
2023-04-25T08:15:03.589Z,24.58
2023-04-25T08:16:03.616Z,24.60
2023-04-25T08:17:03.716Z,24.61
2023-04-25T08:18:03.636Z,24.61
2023-04-25T08:19:03.591Z,24.62
2023-04-25T08:20:03.539Z,24.62
2023-04-25T08:21:03.558Z,24.61
2023-04-25T08:22:03.507Z,24.62
2023-04-25T08:23:03.483Z,24.63
2023-04-25T08:24:03.510Z,24.61
2023-04-25T08:25:03.542Z,24.61
2023-04-25T08:26:03.494Z,24.62
2023-04-25T08:27:03.496Z,24.63
2023-04-25T08:28:03.449Z,24.65
2023-04-25T08:29:03.504Z,24.67
2023-04-25T08:30:03.447Z,24.69
2023-04-25T08:31:03.424Z,24.70
2023-04-25T08:32:03.934Z,24.69
2023-04-25T08:33:03.467Z,24.67
2023-04-25T08:34:03.365Z,24.65
2023-04-25T08:35:03.370Z,24.64
2023-04-25T08:36:03.326Z,24.63
2023-04-25T08:37:03.317Z,24.62
2023-04-25T08:38:03.334Z,24.60
2023-04-25T08:39:03.320Z,24.59
2023-04-25T08:40:03.284Z,24.58
2023-04-25T08:41:03.249Z,24.57
2023-04-25T08:42:03.255Z,24.56
2023-04-25T08:43:03.250Z,24.55
2023-04-25T08:44:03.227Z,24.54
2023-04-25T08:45:04.537Z,24.51
2023-04-25T08:46:03.208Z,24.48
2023-04-25T08:47:03.351Z,24.42
2023-04-25T08:48:03.219Z,24.35
2023-04-25T08:49:03.182Z,24.32
2023-04-25T08:50:03.192Z,24.29
2023-04-25T08:51:03.172Z,24.28
2023-04-25T08:52:03.311Z,24.26
2023-04-25T08:53:03.136Z,24.14
2023-04-25T08:54:09.468Z,24.02
2023-04-25T08:55:04.116Z,23.93
2023-04-25T08:56:03.105Z,23.88
2023-04-25T08:57:03.102Z,23.85
2023-04-25T08:58:03.120Z,23.81
2023-04-25T08:59:03.088Z,23.75
2023-04-25T09:00:03.091Z,23.67
2023-04-25T09:01:03.143Z,23.61
2023-04-25T09:02:03.274Z,23.58
2023-04-25T09:03:03.261Z,23.61
2023-04-25T09:04:03.140Z,23.64
2023-04-25T09:05:03.050Z,23.65
2023-04-25T09:06:03.065Z,23.67
2023-04-25T09:07:03.094Z,23.70
2023-04-25T09:08:03.096Z,23.75
2023-04-25T09:09:03.063Z,23.80
2023-04-25T09:10:03.170Z,23.86
2023-04-25T09:11:03.168Z,23.93
2023-04-25T09:12:03.238Z,23.98
2023-04-25T09:13:03.286Z,24.04
2023-04-25T09:14:03.326Z,24.11
2023-04-25T09:15:03.345Z,24.17
2023-04-25T09:16:03.420Z,24.23
2023-04-25T09:17:03.902Z,24.28
2023-04-25T09:18:03.456Z,24.33
2023-04-25T09:19:03.503Z,24.37
2023-04-25T09:20:03.474Z,24.41
2023-04-25T09:21:09.775Z,24.46
2023-04-25T09:22:04.461Z,24.47
2023-04-25T09:23:03.449Z,24.50
2023-04-25T09:24:03.528Z,24.53
2023-04-25T09:25:03.433Z,24.55
2023-04-25T09:26:03.505Z,24.58
2023-04-25T09:27:03.789Z,24.61
2023-04-25T09:28:03.467Z,24.63
2023-04-25T09:29:03.350Z,24.66
2023-04-25T09:30:03.297Z,24.67
2023-04-25T09:31:03.336Z,24.69
2023-04-25T09:32:03.823Z,24.69
2023-04-25T09:33:03.328Z,24.71
2023-04-25T09:34:03.484Z,24.71
2023-04-25T09:35:03.217Z,24.72
2023-04-25T09:36:03.196Z,24.74
2023-04-25T09:37:03.155Z,24.77
2023-04-25T09:38:03.276Z,24.80
2023-04-25T09:39:03.129Z,24.81
2023-04-25T09:40:03.098Z,24.83
2023-04-25T09:41:03.097Z,24.84
2023-04-25T09:42:03.082Z,24.80
2023-04-25T09:43:03.310Z,24.80
2023-04-25T09:44:03.715Z,24.80
2023-04-25T09:45:03.020Z,24.73
2023-04-25T09:46:03.039Z,24.67
2023-04-25T09:47:02.971Z,24.62
2023-04-25T09:48:03.302Z,24.53
2023-04-25T09:49:02.950Z,24.49
2023-04-25T09:50:02.915Z,24.45
2023-04-25T09:51:02.883Z,24.40
2023-04-25T09:52:02.900Z,24.35
2023-04-25T09:53:02.908Z,24.31
2023-04-25T09:54:02.934Z,24.27
2023-04-25T09:55:02.948Z,24.24
2023-04-25T09:56:03.005Z,24.19
2023-04-25T09:57:03.101Z,24.17
2023-04-25T09:58:03.091Z,24.14
2023-04-25T09:59:03.098Z,24.13
2023-04-25T10:00:03.102Z,24.10
2023-04-25T10:01:03.206Z,24.07
2023-04-25T10:02:03.238Z,24.05
2023-04-25T10:03:03.369Z,24.03
2023-04-25T10:04:03.833Z,24.06
2023-04-25T10:05:03.384Z,24.08
2023-04-25T10:06:04.192Z,24.09
2023-04-25T10:07:03.422Z,24.09
2023-04-25T10:08:03.544Z,24.11
2023-04-25T10:09:03.495Z,24.11
2023-04-25T10:10:03.547Z,24.10
2023-04-25T10:11:03.605Z,24.08
2023-04-25T10:12:03.646Z,24.03
2023-04-25T10:13:03.800Z,24.04
2023-04-25T10:14:03.677Z,23.99
2023-04-25T10:15:03.834Z,23.97
2023-04-25T10:16:03.885Z,23.98
2023-04-25T10:17:04.816Z,23.98
2023-04-25T10:18:03.797Z,23.98
2023-04-25T10:19:03.766Z,23.99
2023-04-25T10:20:03.846Z,24.01
2023-04-25T10:21:03.741Z,23.99
2023-04-25T10:22:03.736Z,24.01
2023-04-25T10:23:03.684Z,24.05
2023-04-25T10:24:03.694Z,24.05
2023-04-25T10:25:03.697Z,24.03
2023-04-25T10:26:03.698Z,24.02
2023-04-25T10:27:03.748Z,23.99
2023-04-25T10:28:03.841Z,23.99
2023-04-25T10:29:03.844Z,24.00
2023-04-25T10:30:03.925Z,24.04
2023-04-25T10:31:04.056Z,24.07
2023-04-25T10:32:04.774Z,24.10
2023-04-25T10:33:03.991Z,24.09
2023-04-25T10:34:04.054Z,24.10
2023-04-25T10:35:04.084Z,24.10
2023-04-25T10:36:04.121Z,24.10
2023-04-25T10:37:04.196Z,24.10
2023-04-25T10:38:04.296Z,24.01
2023-04-25T10:39:04.252Z,24.00
2023-04-25T10:40:04.361Z,23.86
2023-04-25T10:41:04.366Z,23.75
2023-04-25T10:42:04.414Z,23.72
2023-04-25T10:43:04.785Z,23.69
2023-04-25T10:44:04.583Z,23.68
2023-04-25T10:45:04.587Z,23.69
2023-04-25T10:46:04.757Z,23.71
2023-04-25T10:47:04.883Z,23.72
2023-04-25T10:48:04.851Z,23.73
2023-04-25T10:49:04.809Z,23.71
2023-04-25T10:50:04.876Z,23.70
2023-04-25T10:51:04.948Z,23.72
2023-04-25T10:52:04.976Z,23.73
2023-04-25T10:53:05.327Z,23.74
2023-04-25T10:54:05.136Z,23.76
2023-04-25T10:55:05.174Z,23.77
2023-04-25T10:56:05.230Z,23.79
2023-04-25T10:57:05.282Z,23.79
2023-04-25T10:58:05.854Z,23.78
2023-04-25T10:59:05.407Z,23.76
2023-04-25T11:00:05.570Z,23.74
2023-04-25T11:01:05.580Z,23.72
2023-04-25T11:02:05.770Z,23.71
2023-04-25T11:03:05.899Z,23.73
2023-04-25T11:04:05.996Z,23.76
2023-04-25T11:05:05.851Z,23.80
2023-04-25T11:06:05.873Z,23.85
2023-04-25T11:07:07.328Z,23.90
2023-04-25T11:08:08.201Z,23.94
2023-04-25T11:09:06.052Z,23.98
2023-04-25T11:10:06.029Z,24.01
2023-04-25T11:11:06.114Z,24.05
2023-04-25T11:12:06.121Z,24.09
2023-04-25T11:13:06.461Z,24.13
2023-04-25T11:14:06.235Z,24.15
2023-04-25T11:15:06.303Z,24.17
2023-04-25T11:16:12.366Z,24.20
2023-04-25T11:17:07.451Z,24.24
2023-04-25T11:18:06.348Z,24.28
2023-04-25T11:19:06.297Z,24.30
2023-04-25T11:20:06.194Z,24.33
2023-04-25T11:21:06.199Z,24.34
2023-04-25T11:22:06.183Z,24.35
2023-04-25T11:23:06.289Z,24.37
2023-04-25T11:24:06.142Z,24.40
2023-04-25T11:25:06.117Z,24.41
2023-04-25T11:26:06.106Z,24.42
2023-04-25T11:27:06.082Z,24.44
2023-04-25T11:28:06.116Z,24.44
2023-04-25T11:29:06.370Z,24.45
2023-04-25T11:30:06.079Z,24.42
2023-04-25T11:31:06.069Z,24.35
2023-04-25T11:32:06.095Z,24.19
2023-04-25T11:33:06.108Z,23.94
2023-04-25T11:34:06.329Z,23.83
2023-04-25T11:35:06.078Z,23.78
2023-04-25T11:36:06.181Z,23.72
2023-04-25T11:37:06.194Z,23.68
2023-04-25T11:38:06.214Z,23.65
2023-04-25T11:39:06.321Z,23.64
2023-04-25T11:40:06.405Z,23.64
2023-04-25T11:41:06.359Z,23.64
2023-04-25T11:42:07.705Z,23.65
2023-04-25T11:43:06.397Z,23.66
2023-04-25T11:44:06.385Z,23.66
2023-04-25T11:45:06.383Z,23.67
2023-04-25T11:46:06.425Z,23.67
2023-04-25T11:47:06.378Z,23.65
2023-04-25T11:48:06.376Z,23.60
2023-04-25T11:49:06.370Z,23.56
2023-04-25T11:50:06.365Z,23.49
2023-04-25T11:51:06.332Z,23.43
2023-04-25T11:52:06.360Z,23.38
2023-04-25T11:53:06.368Z,23.34
2023-04-25T11:54:06.353Z,23.33
2023-04-25T11:55:06.360Z,23.31
2023-04-25T11:56:06.355Z,23.29
2023-04-25T11:57:06.350Z,23.28
2023-04-25T11:58:06.325Z,23.28
2023-04-25T11:59:06.730Z,23.29
2023-04-25T12:00:06.351Z,23.29
2023-04-25T12:01:06.314Z,23.29
2023-04-25T12:02:06.320Z,23.29
2023-04-25T12:03:06.439Z,23.29
2023-04-25T12:04:06.558Z,23.31
2023-04-25T12:05:16.304Z,23.32
2023-04-25T12:06:07.524Z,23.32
2023-04-25T12:07:06.339Z,23.33
2023-04-25T12:08:06.310Z,23.34
2023-04-25T12:09:06.303Z,23.35
2023-04-25T12:10:06.291Z,23.37
2023-04-25T12:11:06.329Z,23.38
2023-04-25T12:12:06.289Z,23.39
2023-04-25T12:13:06.293Z,23.41
2023-04-25T12:14:06.276Z,23.43
2023-04-25T12:15:06.268Z,23.45
2023-04-25T12:16:06.292Z,23.46
2023-04-25T12:17:06.248Z,23.48
2023-04-25T12:18:06.271Z,23.49
2023-04-25T12:19:06.287Z,23.50
2023-04-25T12:20:06.366Z,23.51
2023-04-25T12:21:06.226Z,23.53
2023-04-25T12:22:06.248Z,23.53
2023-04-25T12:23:06.243Z,23.55
2023-04-25T12:24:06.226Z,23.56
2023-04-25T12:25:06.206Z,23.56
2023-04-25T12:26:06.199Z,23.58
2023-04-25T12:27:06.217Z,23.59
2023-04-25T12:28:06.196Z,23.59
2023-04-25T12:29:06.195Z,23.60
2023-04-25T12:30:06.207Z,23.61
2023-04-25T12:31:06.285Z,23.62
2023-04-25T12:32:06.169Z,23.63
2023-04-25T12:33:06.197Z,23.64
2023-04-25T12:34:06.184Z,23.64
2023-04-25T12:35:06.166Z,23.64
2023-04-25T12:36:06.620Z,23.64
2023-04-25T12:37:06.220Z,23.65
2023-04-25T12:38:06.222Z,23.66
2023-04-25T12:39:06.249Z,23.65
2023-04-25T12:40:06.255Z,23.66
2023-04-25T12:41:06.252Z,23.66
2023-04-25T12:42:09.337Z,23.66
2023-04-25T12:43:06.275Z,23.66
2023-04-25T12:44:06.261Z,23.67
2023-04-25T12:45:06.259Z,23.67
2023-04-25T12:46:06.249Z,23.68
2023-04-25T12:47:06.319Z,23.68
2023-04-25T12:48:06.331Z,23.68
2023-04-25T12:49:17.537Z,23.69
2023-04-25T12:50:07.295Z,23.68
2023-04-25T12:51:06.236Z,23.67
2023-04-25T12:52:06.234Z,23.68
2023-04-25T12:53:06.219Z,23.71